sensor_id;sensor_type;location;lat;lon;timestamp;P1;durP1;ratioP1;P2;durP2;ratioP2
16792;SDS011;8513;42.662;23.350;2022-11-11T08:55:22;18.53;;;16.53;;
16792;SDS011;8513;42.662;23.350;2022-11-11T08:57:55;18.57;;;16.20;;
16792;SDS011;8513;42.662;23.350;2022-11-11T09:00:22;17.03;;;14.93;;
16792;SDS011;8513;42.662;23.350;2022-11-11T09:02:48;16.83;;;15.03;;
16792;SDS011;8513;42.662;23.350;2022-11-11T09:05:13;18.37;;;15.10;;
16792;SDS011;8513;42.662;23.350;2022-11-11T09:07:39;17.53;;;15.70;;
16792;SDS011;8513;42.662;23.350;2022-11-11T09:10:04;16.63;;;14.77;;
16792;SDS011;8513;42.662;23.350;2022-11-11T09:12:30;17.07;;;14.23;;
16792;SDS011;8513;42.662;23.350;2022-11-11T09:14:56;19.37;;;14.90;;
16792;SDS011;8513;42.662;23.350;2022-11-11T09:17:21;15.33;;;13.73;;
16792;SDS011;8513;42.662;23.350;2022-11-11T09:19:46;16.93;;;14.67;;
16792;SDS011;8513;42.662;23.350;2022-11-11T09:22:12;20.45;;;14.27;;
16792;SDS011;8513;42.662;23.350;2022-11-11T09:24:37;16.77;;;13.83;;
16792;SDS011;8513;42.662;23.350;2022-11-11T09:27:03;15.80;;;14.20;;
16792;SDS011;8513;42.662;23.350;2022-11-11T09:29:28;16.20;;;14.50;;
16792;SDS011;8513;42.662;23.350;2022-11-11T09:31:53;16.37;;;13.87;;
16792;SDS011;8513;42.662;23.350;2022-11-11T09:34:19;14.73;;;13.23;;
16792;SDS011;8513;42.662;23.350;2022-11-11T09:36:44;14.13;;;12.73;;
16792;SDS011;8513;42.662;23.350;2022-11-11T09:39:10;14.70;;;12.33;;
16792;SDS011;8513;42.662;23.350;2022-11-11T09:44:30;12.82;;;11.50;;
16792;SDS011;8513;42.662;23.350;2022-11-11T09:50:21;12.43;;;11.15;;
16792;SDS011;8513;42.662;23.350;2022-11-11T09:58:14;16.77;;;11.70;;
16792;SDS011;8513;42.662;23.350;2022-11-11T10:00:45;12.70;;;11.40;;
16792;SDS011;8513;42.662;23.350;2022-11-11T10:03:17;14.93;;;12.10;;
16792;SDS011;8513;42.662;23.350;2022-11-11T10:08:36;12.17;;;10.87;;
16792;SDS011;8513;42.662;23.350;2022-11-11T10:11:11;12.33;;;11.20;;
16792;SDS011;8513;42.662;23.350;2022-11-11T10:13:43;12.10;;;11.00;;
16792;SDS011;8513;42.662;23.350;2022-11-11T10:21:15;11.50;;;10.40;;
16792;SDS011;8513;42.662;23.350;2022-11-11T10:23:48;10.95;;;9.88;;
16792;SDS011;8513;42.662;23.350;2022-11-11T10:26:20;10.70;;;9.70;;
16792;SDS011;8513;42.662;23.350;2022-11-11T10:29:00;10.90;;;9.90;;
16792;SDS011;8513;42.662;23.350;2022-11-11T10:31:29;11.20;;;10.10;;
16792;SDS011;8513;42.662;23.350;2022-11-11T10:33:55;11.02;;;9.90;;
16792;SDS011;8513;42.662;23.350;2022-11-11T10:36:27;11.60;;;10.40;;
16792;SDS011;8513;42.662;23.350;2022-11-11T10:38:57;10.93;;;9.82;;
16792;SDS011;8513;42.662;23.350;2022-11-11T10:43:53;11.60;;;10.30;;
16792;SDS011;8513;42.662;23.350;2022-11-11T10:46:23;12.02;;;10.75;;
16792;SDS011;8513;42.662;23.350;2022-11-11T10:49:36;11.63;;;10.43;;
16792;SDS011;8513;42.662;23.350;2022-11-11T10:52:03;10.83;;;9.80;;
16792;SDS011;8513;42.662;23.350;2022-11-11T10:57:11;11.30;;;10.30;;
16792;SDS011;8513;42.662;23.350;2022-11-11T10:59:51;12.63;;;11.23;;
16792;SDS011;8513;42.662;23.350;2022-11-11T11:07:47;9.57;;;8.70;;
16792;SDS011;8513;42.662;23.350;2022-11-11T11:10:16;10.30;;;9.30;;
16792;SDS011;8513;42.662;23.350;2022-11-11T11:12:51;10.87;;;9.77;;
16792;SDS011;8513;42.662;23.350;2022-11-11T11:15:23;11.00;;;9.17;;
16792;SDS011;8513;42.662;23.350;2022-11-11T11:20:31;9.00;;;7.78;;
16792;SDS011;8513;42.662;23.350;2022-11-11T11:22:57;9.23;;;8.30;;
16792;SDS011;8513;42.662;23.350;2022-11-11T11:25:26;9.10;;;8.20;;
16792;SDS011;8513;42.662;23.350;2022-11-11T11:28:03;9.45;;;8.63;;
16792;SDS011;8513;42.662;23.350;2022-11-11T11:30:38;8.50;;;7.45;;
16792;SDS011;8513;42.662;23.350;2022-11-11T11:33:05;8.77;;;7.38;;
16792;SDS011;8513;42.662;23.350;2022-11-11T11:38:04;8.15;;;7.35;;
16792;SDS011;8513;42.662;23.350;2022-11-11T11:43:31;7.32;;;6.60;;
16792;SDS011;8513;42.662;23.350;2022-11-11T11:45:58;7.45;;;6.75;;
16792;SDS011;8513;42.662;23.350;2022-11-11T11:51:36;6.60;;;6.00;;
16792;SDS011;8513;42.662;23.350;2022-11-11T11:56:33;7.20;;;6.50;;
16792;SDS011;8513;42.662;23.350;2022-11-11T12:04:20;7.78;;;6.85;;
16792;SDS011;8513;42.662;23.350;2022-11-11T12:17:56;6.88;;;6.28;;
16792;SDS011;8513;42.662;23.350;2022-11-11T12:20:48;7.22;;;6.10;;
16792;SDS011;8513;42.662;23.350;2022-11-11T12:26:12;7.13;;;6.43;;
16792;SDS011;8513;42.662;23.350;2022-11-11T12:29:19;8.20;;;6.43;;
16792;SDS011;8513;42.662;23.350;2022-11-11T12:40:34;7.30;;;6.60;;
16792;SDS011;8513;42.662;23.350;2022-11-11T12:45:41;5.90;;;5.38;;
16792;SDS011;8513;42.662;23.350;2022-11-11T12:59:17;7.18;;;6.50;;
16792;SDS011;8513;42.662;23.350;2022-11-11T13:08:06;8.68;;;6.70;;
16792;SDS011;8513;42.662;23.350;2022-11-11T13:16:21;8.05;;;6.53;;
16792;SDS011;8513;42.662;23.350;2022-11-11T13:21:35;7.40;;;6.30;;
16792;SDS011;8513;42.662;23.350;2022-11-11T13:24:23;6.72;;;6.03;;
16792;SDS011;8513;42.662;23.350;2022-11-11T13:27:00;6.80;;;6.20;;
16792;SDS011;8513;42.662;23.350;2022-11-11T13:32:17;7.57;;;6.78;;
16792;SDS011;8513;42.662;23.350;2022-11-11T13:34:49;7.55;;;6.40;;
16792;SDS011;8513;42.662;23.350;2022-11-11T13:37:19;7.78;;;6.90;;
16792;SDS011;8513;42.662;23.350;2022-11-11T13:39:49;7.43;;;6.73;;
16792;SDS011;8513;42.662;23.350;2022-11-11T13:42:20;8.98;;;6.72;;
16792;SDS011;8513;42.662;23.350;2022-11-11T13:44:52;8.60;;;6.65;;
16792;SDS011;8513;42.662;23.350;2022-11-11T13:47:39;8.43;;;6.63;;
16792;SDS011;8513;42.662;23.350;2022-11-11T13:50:26;8.02;;;7.07;;
16792;SDS011;8513;42.662;23.350;2022-11-11T13:53:02;8.95;;;7.10;;
16792;SDS011;8513;42.662;23.350;2022-11-11T13:55:38;8.45;;;7.07;;
16792;SDS011;8513;42.662;23.350;2022-11-11T13:58:06;7.15;;;6.45;;
16792;SDS011;8513;42.662;23.350;2022-11-11T14:00:41;7.90;;;7.20;;
16792;SDS011;8513;42.662;23.350;2022-11-11T14:03:29;8.23;;;7.43;;
16792;SDS011;8513;42.662;23.350;2022-11-11T14:13:51;7.70;;;6.90;;
16792;SDS011;8513;42.662;23.350;2022-11-11T14:22:00;11.90;;;8.27;;
16792;SDS011;8513;42.662;23.350;2022-11-11T14:29:36;11.13;;;7.70;;
16792;SDS011;8513;42.662;23.350;2022-11-11T14:40:41;9.52;;;8.52;;
16792;SDS011;8513;42.662;23.350;2022-11-11T14:45:59;10.65;;;9.45;;
16792;SDS011;8513;42.662;23.350;2022-11-11T14:54:14;19.58;;;16.40;;
16792;SDS011;8513;42.662;23.350;2022-11-11T14:56:44;16.15;;;14.55;;
16792;SDS011;8513;42.662;23.350;2022-11-11T14:59:20;14.88;;;13.00;;
16792;SDS011;8513;42.662;23.350;2022-11-11T15:01:49;12.20;;;10.40;;
16792;SDS011;8513;42.662;23.350;2022-11-11T15:04:17;14.88;;;9.85;;
16792;SDS011;8513;42.662;23.350;2022-11-11T15:06:45;11.70;;;10.35;;
16792;SDS011;8513;42.662;23.350;2022-11-11T15:11:45;14.45;;;11.15;;
16792;SDS011;8513;42.662;23.350;2022-11-11T15:23:29;13.52;;;11.23;;
16792;SDS011;8513;42.662;23.350;2022-11-11T15:26:11;13.05;;;11.15;;
16792;SDS011;8513;42.662;23.350;2022-11-11T15:29:03;12.13;;;10.93;;
16792;SDS011;8513;42.662;23.350;2022-11-11T15:31:43;17.08;;;11.50;;
16792;SDS011;8513;42.662;23.350;2022-11-11T15:39:35;12.18;;;10.88;;
16792;SDS011;8513;42.662;23.350;2022-11-11T15:44:55;13.77;;;12.13;;
16792;SDS011;8513;42.662;23.350;2022-11-11T15:47:23;13.25;;;11.48;;
16792;SDS011;8513;42.662;23.350;2022-11-11T15:49:49;14.45;;;12.98;;
16792;SDS011;8513;42.662;23.350;2022-11-11T15:54:47;14.93;;;12.27;;
16792;SDS011;8513;42.662;23.350;2022-11-11T16:00:01;14.50;;;13.00;;
16792;SDS011;8513;42.662;23.350;2022-11-11T16:02:34;14.38;;;12.88;;
16792;SDS011;8513;42.662;23.350;2022-11-11T16:05:03;14.65;;;13.20;;
16792;SDS011;8513;42.662;23.350;2022-11-11T16:07:42;15.23;;;13.57;;
16792;SDS011;8513;42.662;23.350;2022-11-11T16:10:12;15.18;;;13.60;;
16792;SDS011;8513;42.662;23.350;2022-11-11T16:12:43;16.08;;;13.85;;
16792;SDS011;8513;42.662;23.350;2022-11-11T16:15:17;14.90;;;13.27;;
16792;SDS011;8513;42.662;23.350;2022-11-11T16:17:48;15.88;;;14.00;;
16792;SDS011;8513;42.662;23.350;2022-11-11T16:20:19;16.13;;;14.43;;
16792;SDS011;8513;42.662;23.350;2022-11-11T16:22:49;16.92;;;15.18;;
16792;SDS011;8513;42.662;23.350;2022-11-11T16:25:19;15.88;;;14.18;;
16792;SDS011;8513;42.662;23.350;2022-11-11T16:27:46;18.48;;;15.18;;
16792;SDS011;8513;42.662;23.350;2022-11-11T16:32:58;17.10;;;15.38;;
16792;SDS011;8513;42.662;23.350;2022-11-11T16:35:39;18.52;;;16.58;;
16792;SDS011;8513;42.662;23.350;2022-11-11T16:38:04;18.25;;;16.35;;
16792;SDS011;8513;42.662;23.350;2022-11-11T16:43:19;19.48;;;16.17;;
16792;SDS011;8513;42.662;23.350;2022-11-11T16:46:00;18.40;;;16.40;;
16792;SDS011;8513;42.662;23.350;2022-11-11T16:51:17;17.85;;;15.73;;
16792;SDS011;8513;42.662;23.350;2022-11-11T16:53:55;18.52;;;15.32;;
16792;SDS011;8513;42.662;23.350;2022-11-11T16:56:55;18.15;;;16.25;;
16792;SDS011;8513;42.662;23.350;2022-11-11T16:59:25;18.53;;;16.33;;
16792;SDS011;8513;42.662;23.350;2022-11-11T17:01:58;19.17;;;16.13;;
16792;SDS011;8513;42.662;23.350;2022-11-11T17:04:23;18.83;;;16.93;;
16792;SDS011;8513;42.662;23.350;2022-11-11T17:06:51;19.20;;;17.07;;
16792;SDS011;8513;42.662;23.350;2022-11-11T17:09:32;21.10;;;17.70;;
16792;SDS011;8513;42.662;23.350;2022-11-11T17:12:02;19.90;;;16.27;;
16792;SDS011;8513;42.662;23.350;2022-11-11T17:14:29;18.30;;;16.42;;
16792;SDS011;8513;42.662;23.350;2022-11-11T17:16:58;19.70;;;17.17;;
16792;SDS011;8513;42.662;23.350;2022-11-11T17:19:24;18.50;;;16.50;;
16792;SDS011;8513;42.662;23.350;2022-11-11T17:21:50;21.33;;;17.27;;
16792;SDS011;8513;42.662;23.350;2022-11-11T17:24:15;19.13;;;17.13;;
16792;SDS011;8513;42.662;23.350;2022-11-11T17:26:40;18.70;;;16.55;;
16792;SDS011;8513;42.662;23.350;2022-11-11T17:29:06;19.53;;;17.20;;
16792;SDS011;8513;42.662;23.350;2022-11-11T17:31:34;21.50;;;17.77;;
16792;SDS011;8513;42.662;23.350;2022-11-11T17:34:04;24.57;;;17.67;;
16792;SDS011;8513;42.662;23.350;2022-11-11T17:36:31;21.10;;;17.67;;
16792;SDS011;8513;42.662;23.350;2022-11-11T17:38:56;23.50;;;17.80;;
16792;SDS011;8513;42.662;23.350;2022-11-11T17:41:22;23.23;;;18.07;;
16792;SDS011;8513;42.662;23.350;2022-11-11T17:43:47;20.93;;;18.00;;
16792;SDS011;8513;42.662;23.350;2022-11-11T17:46:13;24.23;;;18.43;;
16792;SDS011;8513;42.662;23.350;2022-11-11T17:48:38;26.37;;;20.17;;
16792;SDS011;8513;42.662;23.350;2022-11-11T17:51:04;21.53;;;18.00;;
16792;SDS011;8513;42.662;23.350;2022-11-11T17:53:33;18.60;;;16.50;;
16792;SDS011;8513;42.662;23.350;2022-11-11T17:56:01;18.83;;;16.83;;
16792;SDS011;8513;42.662;23.350;2022-11-11T17:58:27;23.83;;;17.80;;
16792;SDS011;8513;42.662;23.350;2022-11-11T18:00:53;19.87;;;17.80;;
16792;SDS011;8513;42.662;23.350;2022-11-11T18:03:19;19.85;;;17.65;;
16792;SDS011;8513;42.662;23.350;2022-11-11T18:05:44;20.80;;;18.13;;
16792;SDS011;8513;42.662;23.350;2022-11-11T18:08:10;20.63;;;17.52;;
16792;SDS011;8513;42.662;23.350;2022-11-11T18:10:35;21.33;;;18.43;;
16792;SDS011;8513;42.662;23.350;2022-11-11T18:13:01;22.33;;;19.03;;
16792;SDS011;8513;42.662;23.350;2022-11-11T18:15:27;24.30;;;19.00;;
16792;SDS011;8513;42.662;23.350;2022-11-11T18:17:52;21.80;;;18.03;;
16792;SDS011;8513;42.662;23.350;2022-11-11T18:20:18;21.13;;;17.97;;
16792;SDS011;8513;42.662;23.350;2022-11-11T18:22:43;20.33;;;18.23;;
16792;SDS011;8513;42.662;23.350;2022-11-11T18:25:08;20.37;;;17.83;;
16792;SDS011;8513;42.662;23.350;2022-11-11T18:27:34;18.70;;;16.70;;
16792;SDS011;8513;42.662;23.350;2022-11-11T18:29:59;21.20;;;17.90;;
16792;SDS011;8513;42.662;23.350;2022-11-11T18:32:25;21.53;;;18.60;;
16792;SDS011;8513;42.662;23.350;2022-11-11T18:34:50;19.10;;;17.20;;
16792;SDS011;8513;42.662;23.350;2022-11-11T18:37:16;19.80;;;16.90;;
16792;SDS011;8513;42.662;23.350;2022-11-11T18:39:41;18.73;;;16.83;;
16792;SDS011;8513;42.662;23.350;2022-11-11T18:42:06;19.10;;;17.03;;
16792;SDS011;8513;42.662;23.350;2022-11-11T18:44:32;18.73;;;16.87;;
16792;SDS011;8513;42.662;23.350;2022-11-11T18:46:57;19.47;;;17.43;;
16792;SDS011;8513;42.662;23.350;2022-11-11T18:49:23;19.40;;;17.40;;
16792;SDS011;8513;42.662;23.350;2022-11-11T18:51:48;20.93;;;18.40;;
16792;SDS011;8513;42.662;23.350;2022-11-11T18:54:15;20.23;;;18.13;;
16792;SDS011;8513;42.662;23.350;2022-11-11T18:56:40;20.87;;;17.70;;
16792;SDS011;8513;42.662;23.350;2022-11-11T18:59:06;19.80;;;17.40;;
16792;SDS011;8513;42.662;23.350;2022-11-11T19:01:33;19.73;;;17.73;;
16792;SDS011;8513;42.662;23.350;2022-11-11T19:04:04;19.63;;;17.43;;
16792;SDS011;8513;42.662;23.350;2022-11-11T19:06:35;19.63;;;17.40;;
16792;SDS011;8513;42.662;23.350;2022-11-11T19:09:07;20.80;;;18.60;;
16792;SDS011;8513;42.662;23.350;2022-11-11T19:11:35;20.23;;;18.13;;
16792;SDS011;8513;42.662;23.350;2022-11-11T19:14:03;20.87;;;18.57;;
16792;SDS011;8513;42.662;23.350;2022-11-11T19:16:30;19.57;;;17.40;;
16792;SDS011;8513;42.662;23.350;2022-11-11T19:18:56;20.77;;;18.57;;
16792;SDS011;8513;42.662;23.350;2022-11-11T19:21:23;23.00;;;18.93;;
16792;SDS011;8513;42.662;23.350;2022-11-11T19:23:50;22.43;;;20.13;;
16792;SDS011;8513;42.662;23.350;2022-11-11T19:26:18;21.47;;;19.20;;
16792;SDS011;8513;42.662;23.350;2022-11-11T19:28:45;20.23;;;18.10;;
16792;SDS011;8513;42.662;23.350;2022-11-11T19:31:11;21.53;;;19.33;;
16792;SDS011;8513;42.662;23.350;2022-11-11T19:33:39;21.30;;;19.07;;
16792;SDS011;8513;42.662;23.350;2022-11-11T19:36:07;23.73;;;20.53;;
16792;SDS011;8513;42.662;23.350;2022-11-11T19:38:34;22.23;;;19.93;;
16792;SDS011;8513;42.662;23.350;2022-11-11T19:41:16;22.77;;;19.67;;
16792;SDS011;8513;42.662;23.350;2022-11-11T19:43:44;21.87;;;19.23;;
16792;SDS011;8513;42.662;23.350;2022-11-11T19:46:10;22.90;;;20.50;;
16792;SDS011;8513;42.662;23.350;2022-11-11T19:48:38;23.10;;;20.00;;
16792;SDS011;8513;42.662;23.350;2022-11-11T19:51:05;22.43;;;20.03;;
16792;SDS011;8513;42.662;23.350;2022-11-11T19:53:32;21.97;;;19.67;;
16792;SDS011;8513;42.662;23.350;2022-11-11T19:55:59;23.17;;;20.30;;
16792;SDS011;8513;42.662;23.350;2022-11-11T19:58:26;23.40;;;19.40;;
16792;SDS011;8513;42.662;23.350;2022-11-11T20:00:52;23.40;;;20.90;;
16792;SDS011;8513;42.662;23.350;2022-11-11T20:03:18;23.50;;;19.70;;
16792;SDS011;8513;42.662;23.350;2022-11-11T20:05:43;23.20;;;20.73;;
16792;SDS011;8513;42.662;23.350;2022-11-11T20:08:09;24.27;;;20.40;;
16792;SDS011;8513;42.662;23.350;2022-11-11T20:10:39;26.67;;;21.37;;
16792;SDS011;8513;42.662;23.350;2022-11-11T20:13:06;26.60;;;22.33;;
16792;SDS011;8513;42.662;23.350;2022-11-11T20:15:32;25.30;;;22.47;;
16792;SDS011;8513;42.662;23.350;2022-11-11T20:20:50;28.80;;;24.17;;
16792;SDS011;8513;42.662;23.350;2022-11-11T20:23:20;26.47;;;23.20;;
16792;SDS011;8513;42.662;23.350;2022-11-11T20:25:45;25.20;;;22.50;;
16792;SDS011;8513;42.662;23.350;2022-11-11T20:28:11;27.33;;;22.90;;
16792;SDS011;8513;42.662;23.350;2022-11-11T20:30:36;25.67;;;22.83;;
16792;SDS011;8513;42.662;23.350;2022-11-11T20:33:02;25.90;;;23.03;;
16792;SDS011;8513;42.662;23.350;2022-11-11T20:35:27;28.03;;;24.03;;
16792;SDS011;8513;42.662;23.350;2022-11-11T20:37:54;28.57;;;24.37;;
16792;SDS011;8513;42.662;23.350;2022-11-11T20:40:19;27.23;;;24.27;;
16792;SDS011;8513;42.662;23.350;2022-11-11T20:42:44;27.37;;;24.30;;
16792;SDS011;8513;42.662;23.350;2022-11-11T20:45:10;28.13;;;24.60;;
16792;SDS011;8513;42.662;23.350;2022-11-11T20:47:35;29.40;;;24.67;;
16792;SDS011;8513;42.662;23.350;2022-11-11T20:50:01;27.40;;;24.53;;
16792;SDS011;8513;42.662;23.350;2022-11-11T20:52:26;28.27;;;24.30;;
16792;SDS011;8513;42.662;23.350;2022-11-11T20:54:52;27.47;;;24.53;;
16792;SDS011;8513;42.662;23.350;2022-11-11T20:57:20;28.33;;;24.40;;
16792;SDS011;8513;42.662;23.350;2022-11-11T20:59:45;29.30;;;24.97;;
16792;SDS011;8513;42.662;23.350;2022-11-11T21:02:11;27.20;;;24.20;;
16792;SDS011;8513;42.662;23.350;2022-11-11T21:04:36;25.83;;;22.97;;
16792;SDS011;8513;42.662;23.350;2022-11-11T21:07:02;26.57;;;23.07;;
16792;SDS011;8513;42.662;23.350;2022-11-11T21:09:27;28.33;;;25.17;;
16792;SDS011;8513;42.662;23.350;2022-11-11T21:11:53;25.73;;;22.90;;
16792;SDS011;8513;42.662;23.350;2022-11-11T21:14:18;27.37;;;24.37;;
16792;SDS011;8513;42.662;23.350;2022-11-11T21:16:44;26.57;;;23.47;;
16792;SDS011;8513;42.662;23.350;2022-11-11T21:19:09;26.70;;;23.90;;
16792;SDS011;8513;42.662;23.350;2022-11-11T21:21:35;28.50;;;25.10;;
16792;SDS011;8513;42.662;23.350;2022-11-11T21:24:01;26.33;;;23.57;;
16792;SDS011;8513;42.662;23.350;2022-11-11T21:26:31;26.40;;;23.23;;
16792;SDS011;8513;42.662;23.350;2022-11-11T21:28:57;27.67;;;23.43;;
16792;SDS011;8513;42.662;23.350;2022-11-11T21:31:24;27.27;;;23.77;;
16792;SDS011;8513;42.662;23.350;2022-11-11T21:33:53;27.00;;;23.57;;
16792;SDS011;8513;42.662;23.350;2022-11-11T21:36:27;28.17;;;23.13;;
16792;SDS011;8513;42.662;23.350;2022-11-11T21:38:54;27.67;;;24.43;;
16792;SDS011;8513;42.662;23.350;2022-11-11T21:41:21;28.93;;;25.30;;
16792;SDS011;8513;42.662;23.350;2022-11-11T21:43:49;26.90;;;24.00;;
16792;SDS011;8513;42.662;23.350;2022-11-11T21:46:20;27.53;;;24.23;;
16792;SDS011;8513;42.662;23.350;2022-11-11T21:48:47;27.80;;;23.67;;
16792;SDS011;8513;42.662;23.350;2022-11-11T21:51:17;25.73;;;22.87;;
16792;SDS011;8513;42.662;23.350;2022-11-11T21:53:57;27.37;;;22.97;;
16792;SDS011;8513;42.662;23.350;2022-11-11T21:56:24;25.73;;;22.93;;
16792;SDS011;8513;42.662;23.350;2022-11-11T21:58:53;24.83;;;21.97;;
16792;SDS011;8513;42.662;23.350;2022-11-11T22:01:20;25.50;;;22.80;;
16792;SDS011;8513;42.662;23.350;2022-11-11T22:03:52;25.57;;;22.80;;
16792;SDS011;8513;42.662;23.350;2022-11-11T22:06:20;26.63;;;23.73;;
16792;SDS011;8513;42.662;23.350;2022-11-11T22:08:47;26.37;;;23.57;;
16792;SDS011;8513;42.662;23.350;2022-11-11T22:11:15;26.97;;;23.70;;
16792;SDS011;8513;42.662;23.350;2022-11-11T22:13:42;27.27;;;23.87;;
16792;SDS011;8513;42.662;23.350;2022-11-11T22:16:08;27.27;;;23.57;;
16792;SDS011;8513;42.662;23.350;2022-11-11T22:18:36;26.23;;;23.30;;
16792;SDS011;8513;42.662;23.350;2022-11-11T22:21:15;28.00;;;23.63;;
16792;SDS011;8513;42.662;23.350;2022-11-11T22:23:45;27.63;;;23.60;;
16792;SDS011;8513;42.662;23.350;2022-11-11T22:26:12;30.30;;;25.27;;
16792;SDS011;8513;42.662;23.350;2022-11-11T22:28:39;26.93;;;24.00;;
16792;SDS011;8513;42.662;23.350;2022-11-11T22:31:09;28.20;;;23.50;;
16792;SDS011;8513;42.662;23.350;2022-11-11T22:33:37;29.37;;;25.53;;
16792;SDS011;8513;42.662;23.350;2022-11-11T22:36:05;28.40;;;24.67;;
16792;SDS011;8513;42.662;23.350;2022-11-11T22:38:32;26.43;;;23.53;;
16792;SDS011;8513;42.662;23.350;2022-11-11T22:41:01;29.23;;;25.57;;
16792;SDS011;8513;42.662;23.350;2022-11-11T22:43:28;27.47;;;23.70;;
16792;SDS011;8513;42.662;23.350;2022-11-11T22:45:58;27.60;;;24.30;;
16792;SDS011;8513;42.662;23.350;2022-11-11T22:48:24;26.47;;;22.63;;
16792;SDS011;8513;42.662;23.350;2022-11-11T22:50:50;28.00;;;24.63;;
16792;SDS011;8513;42.662;23.350;2022-11-11T22:53:15;27.27;;;23.40;;
16792;SDS011;8513;42.662;23.350;2022-11-11T22:55:41;25.87;;;23.07;;
16792;SDS011;8513;42.662;23.350;2022-11-11T22:58:06;27.30;;;24.40;;
16792;SDS011;8513;42.662;23.350;2022-11-11T23:00:32;26.90;;;23.10;;
16792;SDS011;8513;42.662;23.350;2022-11-11T23:02:57;28.90;;;24.13;;
16792;SDS011;8513;42.662;23.350;2022-11-11T23:05:23;25.93;;;22.70;;
16792;SDS011;8513;42.662;23.350;2022-11-11T23:07:48;30.27;;;24.90;;
16792;SDS011;8513;42.662;23.350;2022-11-11T23:10:14;26.20;;;23.47;;
16792;SDS011;8513;42.662;23.350;2022-11-11T23:12:39;28.83;;;24.80;;
16792;SDS011;8513;42.662;23.350;2022-11-11T23:15:05;27.83;;;23.87;;
16792;SDS011;8513;42.662;23.350;2022-11-11T23:17:31;28.27;;;25.10;;
16792;SDS011;8513;42.662;23.350;2022-11-11T23:19:56;27.13;;;24.13;;
16792;SDS011;8513;42.662;23.350;2022-11-11T23:22:22;26.60;;;23.60;;
16792;SDS011;8513;42.662;23.350;2022-11-11T23:24:47;26.33;;;23.50;;
16792;SDS011;8513;42.662;23.350;2022-11-11T23:27:12;28.70;;;24.03;;
16792;SDS011;8513;42.662;23.350;2022-11-11T23:29:38;26.20;;;23.07;;
16792;SDS011;8513;42.662;23.350;2022-11-11T23:32:03;29.73;;;24.20;;
16792;SDS011;8513;42.662;23.350;2022-11-11T23:34:29;25.63;;;22.93;;
16792;SDS011;8513;42.662;23.350;2022-11-11T23:36:54;27.03;;;23.33;;
16792;SDS011;8513;42.662;23.350;2022-11-11T23:39:20;26.13;;;22.10;;
16792;SDS011;8513;42.662;23.350;2022-11-11T23:41:47;26.27;;;22.53;;
16792;SDS011;8513;42.662;23.350;2022-11-11T23:44:12;25.67;;;22.87;;
16792;SDS011;8513;42.662;23.350;2022-11-11T23:46:38;28.53;;;23.20;;
16792;SDS011;8513;42.662;23.350;2022-11-11T23:49:03;26.77;;;22.90;;
16792;SDS011;8513;42.662;23.350;2022-11-11T23:51:29;25.80;;;23.10;;
16792;SDS011;8513;42.662;23.350;2022-11-11T23:53:54;26.47;;;22.30;;
16792;SDS011;8513;42.662;23.350;2022-11-11T23:56:20;27.00;;;21.97;;
16792;SDS011;8513;42.662;23.350;2022-11-11T23:58:45;28.17;;;22.30;;
